16:47
Airports
History
Links
Donate
Help keep this website running!
PayPal
Bitcoin
Information on this page is community maintained and may be outdated or inaccurate and is intended for reference only or PC simulator navigating.
Always use approved charts for navigating.
LIDL
Legnago
Legnago (LIDL)
Legnago, Veneto, Italy (37045)
4
Lat/Lng:45° 7' 57" N / 11° 17' 33" E
45.1325 / 11.2925
Elevation:30'ft 9mMSL
ID / ICAO:LIDL
Runways:1
Longest:(34-16) 611.5m 2,006ft Grass
Distance To
Airport ID:
Nearby VORs <50NM
Nearby NDBs
Nearby WeatherUpdated 05-26-17 16:20 GMT
Nearby weather at LIPX, VILLAFRANCA located 26.8 nautical miles from LIDL
Altimeter: 30.00
Visibility: 6.2 statute miles
Wind: 4 knots (150°)
Temp: 26°c 79°f
Humidity: 41.7%

METAR: LIPX 261620Z 15004KT 090V220 CAVOK 26/12 Q1016

(Powered by phpweather)
Runway 34 / 16
Dimensions:611.5 x 50m 2006' x 164'ft
Surface:Grass
Runway 34 [A]Runway 16 [B]
Heading:340°TH 160°TH
Lat:
Lng:
45° 7' 47.72"N
11° 17' 37.79"E
45° 8' 6.28"N
11° 17' 28.21"E
User Notes and Comments
Google Map
Nearby Airports
4 Mantova 24.3 NM
LIDM W 270°
(C) VILLAFRANCA 26.8 NM
LIPX (WX) NW 313°
(U) Ferrara 26.9 NM
LIPF (WX) SE 144°
(U) Carpi Budrione 29.1 NM
LIDU SW 225°
(U) VERONA BOSCOMANTICO 29.4 NM
LIPN NW 322°
4 Prati Vecchi di Aguscello 30.0 NM
LIDV SE 142°
(X) [X] VICENZA 32.6 NM
LIPT (WX) NNE 20°
VFR Chart
Flight Planning at SkyVector.com